WetterOnline ( https://www.wetteronline.de )

Wetter aktuell Otterndorf

Aktuelles Wetter: Cuxhaven (12m)

6-stündlich | Neueste Meldungen
Ortszeit Temperatur Wetter
Fr, 18.09. 14:00 16.1° C wolkenlos
Fr, 18.09. 8:00 11.1° C wolkenlos
Fr, 18.09. 2:00 13.2° C wolkenlos
Do, 17.09. 20:00 14.9° C wolkig
Do, 17.09. 14:00 16.1° C wolkenlos
Do, 17.09. 8:00 12.4° C wolkenlos
Do, 17.09. 2:00 14.7° C wolkenlos
Mi, 16.09. 20:00 15.7° C bewölkt
Ortszeit Temperatur Wetter
Fr, 18.09. 16:00 17.1° C leicht bewölkt
Fr, 18.09. 15:50 17.1° C leicht bewölkt
Fr, 18.09. 15:40 17.2° C leicht bewölkt
Fr, 18.09. 15:30 16.9° C leicht bewölkt
Fr, 18.09. 15:20 16.9° C leicht bewölkt
Fr, 18.09. 15:10 16.7° C leicht bewölkt
Fr, 18.09. 15:00 16.6° C wolkenlos
Fr, 18.09. 14:30 16.1° C fast wolkenlos
Fr, 18.09. 14:00 16.1° C wolkenlos
Fr, 18.09. 13:30 15.6° C wolkenlos
Fr, 18.09. 13:00 15.0° C fast wolkenlos
Ortszeit Relative Feuchte Sichtweite
Fr, 18.09. 14:00 56% >70 km
Fr, 18.09. 8:00 86% 35 km
Fr, 18.09. 2:00 76% 50 km
Do, 17.09. 20:00 63% 35 km
Do, 17.09. 14:00 56% 45 km
Do, 17.09. 8:00 72% 45 km
Do, 17.09. 2:00 69% 40 km
Mi, 16.09. 20:00 73% 20 km
Ortszeit Relative Feuchte Sichtweite
Fr, 18.09. 16:00 45% 40 km
Fr, 18.09. 15:50 45% -
Fr, 18.09. 15:40 46% -
Fr, 18.09. 15:30 48% 60 km
Fr, 18.09. 15:20 48% -
Fr, 18.09. 15:10 50% -
Fr, 18.09. 15:00 53% 65 km
Fr, 18.09. 14:30 56% 40 km
Fr, 18.09. 14:00 56% >70 km
Fr, 18.09. 13:30 56% 40 km
Fr, 18.09. 13:00 63% 40 km
Ortszeit Niederschlagsmenge Niederschlagsart
Fr, 18.09. 14:00 0.0 l/m2 in 6 Std. -
Fr, 18.09. 8:00 0.0 l/m2 in 12 Std. -
Fr, 18.09. 2:00 0.0 l/m2 in 6 Std. -
Do, 17.09. 20:00 0.0 l/m2 in 12 Std. -
Do, 17.09. 14:00 0.0 l/m2 in 6 Std. -
Do, 17.09. 8:00 0.0 l/m2 in 12 Std. -
Do, 17.09. 2:00 0.0 l/m2 in 6 Std. -
Mi, 16.09. 20:00 0.1 l/m2 in 12 Std. -
Ortszeit Niederschlagsmenge Niederschlagsart
Fr, 18.09. 16:00 0.0 l/m2 in 1 Std. -
Fr, 18.09. 15:50 keine Meldung -
Fr, 18.09. 15:40 keine Meldung -
Fr, 18.09. 15:30 0.0 l/m2 in 1 Std. -
Fr, 18.09. 15:20 keine Meldung -
Fr, 18.09. 15:10 keine Meldung -
Fr, 18.09. 15:00 0.0 l/m2 in 1 Std. -
Fr, 18.09. 14:30 0.0 l/m2 in 1 Std. -
Fr, 18.09. 14:00 0.0 l/m2 in 1 Std. -
Fr, 18.09. 13:30 0.0 l/m2 in 1 Std. -
Fr, 18.09. 13:00 0.0 l/m2 in 1 Std. -
Ortszeit Stärke Spitze Richtung
km/h Bft. km/h Grad Sektor
Fr, 18.09. 14:00 17 3 24 90° O
Fr, 18.09. 8:00 17 3 26 120° SO
Fr, 18.09. 2:00 18 3 32 90° O
Do, 17.09. 20:00 22 4 29 60° NO
Do, 17.09. 14:00 13 3 33 50° NO
Do, 17.09. 8:00 20 4 37 40° NO
Do, 17.09. 2:00 31 5 56 40° NO
Mi, 16.09. 20:00 36 5 50 330° NW
Ortszeit Stärke Spitze Richtung
km/h Bft. km/h Grad Sektor
Fr, 18.09. 16:00 22 4 30 80° O
Fr, 18.09. 15:50 22 4 - 80° O
Fr, 18.09. 15:40 19 3 - 90° O
Fr, 18.09. 15:30 22 4 29 80° O
Fr, 18.09. 15:20 22 4 - 80° O
Fr, 18.09. 15:10 20 4 - 80° O
Fr, 18.09. 15:00 18 3 29 80° O
Fr, 18.09. 14:30 19 3 30 80° O
Fr, 18.09. 14:00 17 3 24 90° O
Fr, 18.09. 13:30 15 3 24 90° O
Fr, 18.09. 13:00 17 3 22 90° O
Ortszeit Untergrenze Bedeckung Gattung
total tief tief mittel hoch
Fr, 18.09. 14:00 - 0/8 0/8 - - -
Fr, 18.09. 8:00 - 0/8 0/8 - - -
Fr, 18.09. 2:00 - 0/8 0/8 - - -
Do, 17.09. 20:00 10500 m 7/8 0/8 - - -
Do, 17.09. 14:00 - 0/8 0/8 - - -
Do, 17.09. 8:00 7800 m 0/8 0/8 - - -
Do, 17.09. 2:00 - 0/8 0/8 - - -
Mi, 16.09. 20:00 660 m 7/8 7/8 - - -
Ortszeit Bedeckungsgrad in Achtel und Wolkenuntergrenze
Fr, 18.09. 16:00 3(9000m) 5(10500m) 6(12000m)
Fr, 18.09. 15:50 3(9000m) 5(10500m) 6(12000m)
Fr, 18.09. 15:40 4(10500m) 4(12000m)
Fr, 18.09. 15:30 4(10500m) 5(10500m)
Fr, 18.09. 15:20 4(10500m) 5(10500m)
Fr, 18.09. 15:10 3(10500m)
Fr, 18.09. 15:00 1(10500m)
Fr, 18.09. 14:30 1(10500m)
Fr, 18.09. 14:00 keine Wolken
Fr, 18.09. 13:30 keine Wolken
Fr, 18.09. 13:00 2(10500m)
Ortszeit Luftdruck NN (hPa) Tendenz (hPa in 3 Std.)
Fr, 18.09. 14:00 1030 - 1,5
Fr, 18.09. 8:00 1030 - 0,2
Fr, 18.09. 2:00 1031 - 0,5
Do, 17.09. 20:00 1031 + 0,2
Do, 17.09. 14:00 1032 - 0,3
Do, 17.09. 8:00 1030 + 1,9
Do, 17.09. 2:00 1027 + 1,9
Mi, 16.09. 20:00 1023 + 1,4
Ortszeit Luftdruck NN (hPa) Tendenz (hPa in 3 Std.)
Fr, 18.09. 16:00 1029 - 1,8
Fr, 18.09. 15:50 1029 keine Meldung
Fr, 18.09. 15:40 1029 keine Meldung
Fr, 18.09. 15:30 1029 - 1,8
Fr, 18.09. 15:20 1029 keine Meldung
Fr, 18.09. 15:10 1029 keine Meldung
Fr, 18.09. 15:00 1029 - 2,0
Fr, 18.09. 14:30 1030 - 1,9
Fr, 18.09. 14:00 1030 - 1,5
Fr, 18.09. 13:30 1030 - 1,1
Fr, 18.09. 13:00 1031 - 0,7
Ortszeit Schneehöhe (cm)
Fr, 18.09. 14:00 -
Fr, 18.09. 8:00 -
Fr, 18.09. 2:00 -
Do, 17.09. 20:00 -
Do, 17.09. 14:00 -
Do, 17.09. 8:00 -
Do, 17.09. 2:00 -
Mi, 16.09. 20:00 -
Ortszeit Schneehöhe (cm)
Fr, 18.09. 16:00 -
Fr, 18.09. 15:50 -
Fr, 18.09. 15:40 -
Fr, 18.09. 15:30 -
Fr, 18.09. 15:20 -
Fr, 18.09. 15:10 -
Fr, 18.09. 15:00 -
Fr, 18.09. 14:30 -
Fr, 18.09. 14:00 -
Fr, 18.09. 13:30 -
Fr, 18.09. 13:00 -
Link zu dieser Seite / Seite empfehlen

Das Wetter in ...